createdAt,value
2019-03-23T00:02:07.048Z,5.80
2019-03-23T00:04:44.446Z,5.80
2019-03-23T00:07:22.087Z,5.80
2019-03-23T00:09:59.508Z,5.70
2019-03-23T00:12:36.845Z,5.70
2019-03-23T00:15:14.328Z,5.70
2019-03-23T00:17:51.683Z,5.60
2019-03-23T00:20:30.389Z,5.60
2019-03-23T00:23:07.932Z,5.60
2019-03-23T00:25:45.347Z,5.50
2019-03-23T00:28:22.800Z,5.50
2019-03-23T00:31:00.142Z,5.50
2019-03-23T00:33:37.520Z,5.50
2019-03-23T00:36:14.924Z,5.50
2019-03-23T00:38:52.303Z,5.40
2019-03-23T00:41:29.677Z,5.40
2019-03-23T00:44:07.546Z,5.40
2019-03-23T00:46:45.027Z,5.30
2019-03-23T00:49:22.394Z,5.30
2019-03-23T00:51:59.619Z,5.30
2019-03-23T00:54:36.964Z,5.30
2019-03-23T00:57:14.321Z,5.20
2019-03-23T00:59:51.758Z,5.20
2019-03-23T01:02:29.156Z,5.20
2019-03-23T01:05:07.564Z,5.20
2019-03-23T01:07:44.927Z,5.10
2019-03-23T01:10:22.302Z,5.10
2019-03-23T01:12:59.790Z,5.10
2019-03-23T01:15:37.114Z,5.10
2019-03-23T01:18:14.715Z,5.00
2019-03-23T01:20:52.638Z,5.00
2019-03-23T01:23:29.968Z,5.00
2019-03-23T01:26:07.436Z,5.00
2019-03-23T01:28:44.932Z,4.90
2019-03-23T01:31:22.641Z,4.90
2019-03-23T01:33:59.786Z,4.90
2019-03-23T01:36:37.104Z,4.90
2019-03-23T01:39:14.416Z,4.80
2019-03-23T01:41:51.805Z,4.80
2019-03-23T01:44:29.215Z,4.80
2019-03-23T01:47:06.507Z,4.80
2019-03-23T01:49:43.912Z,4.70
2019-03-23T01:52:21.561Z,4.70
2019-03-23T01:54:59.300Z,4.70
2019-03-23T01:57:36.692Z,4.70
2019-03-23T02:00:14.260Z,4.70
2019-03-23T02:02:51.665Z,4.70
2019-03-23T02:05:29.081Z,4.70
2019-03-23T02:08:06.504Z,4.70
2019-03-23T02:10:43.867Z,4.70
2019-03-23T02:13:21.316Z,4.70
2019-03-23T02:15:58.603Z,4.70
2019-03-23T02:18:36.144Z,4.80
2019-03-23T02:21:13.576Z,4.70
2019-03-23T02:23:52.699Z,4.80
2019-03-23T02:26:33.080Z,4.80
2019-03-23T02:29:10.448Z,4.80
2019-03-23T02:31:47.948Z,4.80
2019-03-23T02:34:25.319Z,4.80
2019-03-23T02:37:02.863Z,4.80
2019-03-23T02:39:40.388Z,4.80
2019-03-23T02:42:17.710Z,4.80
2019-03-23T02:44:55.077Z,4.80
2019-03-23T02:47:32.421Z,4.80
2019-03-23T02:50:10.446Z,4.70
2019-03-23T02:52:47.857Z,4.70
2019-03-23T02:55:25.188Z,4.70
2019-03-23T02:58:02.559Z,4.60
2019-03-23T03:00:39.898Z,4.50
2019-03-23T03:03:17.397Z,4.50
2019-03-23T03:05:54.729Z,4.50
2019-03-23T03:08:32.148Z,4.50
2019-03-23T03:11:09.529Z,4.50
2019-03-23T03:13:47.093Z,4.50
2019-03-23T03:16:24.324Z,4.40
2019-03-23T03:19:01.762Z,4.40
2019-03-23T03:21:39.162Z,4.50
2019-03-23T03:24:16.706Z,4.40
2019-03-23T03:26:54.147Z,4.40
2019-03-23T03:29:31.507Z,4.40
2019-03-23T03:32:08.975Z,4.30
2019-03-23T03:34:46.298Z,4.40
2019-03-23T03:37:23.719Z,4.30
2019-03-23T03:40:01.065Z,4.30
2019-03-23T03:42:38.484Z,4.20
2019-03-23T03:45:25.582Z,4.20
2019-03-23T03:48:03.024Z,4.20
2019-03-23T03:50:41.286Z,4.20
2019-03-23T03:53:20.331Z,4.20
2019-03-23T03:55:57.619Z,4.20
2019-03-23T03:58:35.077Z,4.20
2019-03-23T04:01:12.301Z,4.20
2019-03-23T04:03:49.838Z,4.20
2019-03-23T04:06:27.176Z,4.20
2019-03-23T04:09:06.475Z,4.20
2019-03-23T04:11:43.738Z,4.20
2019-03-23T04:14:21.164Z,4.20
2019-03-23T04:16:59.071Z,4.20
2019-03-23T04:19:36.535Z,4.10
2019-03-23T04:22:14.001Z,4.10
2019-03-23T04:24:51.422Z,4.10
2019-03-23T04:27:28.855Z,4.10
2019-03-23T04:30:07.592Z,4.00
2019-03-23T04:32:44.950Z,4.00
2019-03-23T04:35:22.584Z,3.90
2019-03-23T04:37:59.952Z,3.90
2019-03-23T04:40:37.374Z,3.90
2019-03-23T04:43:14.788Z,3.80
2019-03-23T04:45:52.172Z,3.80
2019-03-23T04:48:29.566Z,3.80
2019-03-23T04:51:07.044Z,3.70
2019-03-23T04:53:44.357Z,3.70
2019-03-23T04:56:21.765Z,3.70
2019-03-23T04:58:59.226Z,3.70
2019-03-23T05:01:36.717Z,3.70
2019-03-23T05:04:14.056Z,3.70
2019-03-23T05:06:51.382Z,3.70
2019-03-23T05:09:28.737Z,3.80
2019-03-23T05:12:06.073Z,3.80
2019-03-23T05:14:43.569Z,3.80
2019-03-23T05:17:27.066Z,3.80
2019-03-23T05:20:09.341Z,3.90
2019-03-23T05:22:46.724Z,3.90
2019-03-23T05:25:26.112Z,3.90
2019-03-23T05:28:04.996Z,3.90
2019-03-23T05:30:42.394Z,4.00
2019-03-23T05:33:19.626Z,4.00
2019-03-23T05:35:56.947Z,4.00
2019-03-23T05:38:43.983Z,4.00
2019-03-23T05:41:13.171Z,4.00
2019-03-23T05:43:50.340Z,4.10
2019-03-23T05:46:27.700Z,4.10
2019-03-23T05:49:04.992Z,4.10
2019-03-23T05:51:42.256Z,4.20
2019-03-23T05:54:19.440Z,4.20
2019-03-23T05:56:56.601Z,4.20
2019-03-23T05:59:33.880Z,4.30
2019-03-23T06:02:11.357Z,4.30
2019-03-23T06:04:49.012Z,4.40
2019-03-23T06:07:26.331Z,4.50
2019-03-23T06:10:05.076Z,4.50
2019-03-23T06:12:42.443Z,4.60
2019-03-23T06:15:19.929Z,4.70
2019-03-23T06:17:57.159Z,4.80
2019-03-23T06:20:34.687Z,4.90
2019-03-23T06:23:11.914Z,5.00
2019-03-23T06:25:49.270Z,5.10
2019-03-23T06:28:26.580Z,5.20
2019-03-23T06:31:03.837Z,5.30
2019-03-23T06:33:41.016Z,5.50
2019-03-23T06:36:18.293Z,5.60
2019-03-23T06:39:05.153Z,5.70
2019-03-23T06:41:34.558Z,5.90
2019-03-23T06:44:11.880Z,6.00
2019-03-23T06:46:49.209Z,6.10
2019-03-23T06:49:26.664Z,6.30
2019-03-23T06:52:03.979Z,6.40
2019-03-23T06:54:41.292Z,6.60
2019-03-23T06:57:18.712Z,6.70
2019-03-23T06:59:55.886Z,6.80
2019-03-23T07:02:33.248Z,7.00
2019-03-23T07:05:10.906Z,7.20
2019-03-23T07:07:48.924Z,7.30
2019-03-23T07:10:27.010Z,7.40
2019-03-23T07:13:05.950Z,7.60
2019-03-23T07:15:43.296Z,7.70
2019-03-23T07:18:20.652Z,7.90
2019-03-23T07:20:57.890Z,8.00
2019-03-23T07:23:35.223Z,8.10
2019-03-23T07:26:12.534Z,8.20
2019-03-23T07:28:49.847Z,8.40
2019-03-23T07:31:27.242Z,8.60
2019-03-23T07:34:06.171Z,8.80
2019-03-23T07:36:43.654Z,8.90
2019-03-23T07:39:27.278Z,9.20
2019-03-23T07:42:00.225Z,9.50
2019-03-23T07:44:37.569Z,10.10
2019-03-23T07:47:15.450Z,10.70
2019-03-23T07:49:52.840Z,11.40
2019-03-23T07:52:30.271Z,12.10
2019-03-23T07:55:12.913Z,12.70
2019-03-23T07:57:50.296Z,13.20
2019-03-23T08:00:31.232Z,13.80
2019-03-23T08:03:10.822Z,14.20
2019-03-23T08:05:48.242Z,14.60
2019-03-23T08:08:25.652Z,15.00
2019-03-23T08:11:03.031Z,15.40
2019-03-23T08:13:40.807Z,15.70
2019-03-23T08:16:18.732Z,16.00
2019-03-23T08:18:56.612Z,16.30
2019-03-23T08:21:34.525Z,16.50
2019-03-23T08:24:12.434Z,16.80
2019-03-23T08:26:50.336Z,17.10
2019-03-23T08:29:28.214Z,17.30
2019-03-23T08:32:06.052Z,17.40
2019-03-23T08:34:43.964Z,17.50
2019-03-23T08:37:21.790Z,17.60
2019-03-23T08:39:59.633Z,17.70
2019-03-23T08:42:37.619Z,17.90
2019-03-23T08:45:15.702Z,18.00
2019-03-23T08:47:53.815Z,18.10
2019-03-23T08:50:31.744Z,18.30
2019-03-23T08:53:09.713Z,18.40
2019-03-23T08:55:47.607Z,18.50
2019-03-23T08:58:30.380Z,18.60
2019-03-23T09:01:08.170Z,18.70
2019-03-23T09:03:52.432Z,18.60
2019-03-23T09:06:25.615Z,18.50
2019-03-23T09:09:04.984Z,18.30
2019-03-23T09:11:42.773Z,18.00
2019-03-23T09:14:20.614Z,17.70
2019-03-23T09:16:58.519Z,17.50
2019-03-23T09:19:36.411Z,17.30
2019-03-23T09:22:18.283Z,17.10
2019-03-23T09:24:57.260Z,17.00
2019-03-23T09:27:35.228Z,16.90
2019-03-23T09:30:13.337Z,16.80
2019-03-23T09:32:51.087Z,16.60
2019-03-23T09:35:29.035Z,16.50
2019-03-23T09:38:06.929Z,16.50
2019-03-23T09:40:44.844Z,16.60
2019-03-23T09:43:22.679Z,16.60
2019-03-23T09:46:00.611Z,16.70
2019-03-23T09:48:38.465Z,16.70
2019-03-23T09:51:16.378Z,16.80
2019-03-23T09:53:54.253Z,16.80
2019-03-23T09:56:32.604Z,16.80
2019-03-23T09:59:10.462Z,16.80
2019-03-23T10:01:48.318Z,16.90
2019-03-23T10:04:26.204Z,16.90
2019-03-23T10:07:03.994Z,17.00
2019-03-23T10:09:41.896Z,16.90
2019-03-23T10:12:19.844Z,17.00
2019-03-23T10:14:57.612Z,17.00
2019-03-23T10:17:35.637Z,17.10
2019-03-23T10:20:13.448Z,17.20
2019-03-23T10:22:51.355Z,17.20
2019-03-23T10:25:29.310Z,17.20
2019-03-23T10:28:07.212Z,17.30
2019-03-23T10:30:45.114Z,17.40
2019-03-23T10:33:33.601Z,17.50
2019-03-23T10:36:12.346Z,17.50
2019-03-23T10:38:50.320Z,17.60
2019-03-23T10:41:28.109Z,17.70
2019-03-23T10:44:06.107Z,17.80
2019-03-23T10:46:43.959Z,17.90
2019-03-23T10:49:24.066Z,18.00
2019-03-23T10:52:03.546Z,18.00
2019-03-23T10:54:41.472Z,18.10
2019-03-23T10:57:19.346Z,18.20
2019-03-23T10:59:57.508Z,18.30
2019-03-23T11:02:36.333Z,18.40
2019-03-23T11:05:17.678Z,18.50
2019-03-23T11:07:58.185Z,18.60
2019-03-23T11:10:42.177Z,18.70
2019-03-23T11:13:21.216Z,18.70
2019-03-23T11:16:12.601Z,18.80
2019-03-23T11:18:53.305Z,18.90
2019-03-23T11:21:31.157Z,19.00
2019-03-23T11:24:09.113Z,19.00
2019-03-23T11:26:46.966Z,19.00
2019-03-23T11:29:27.245Z,19.00
2019-03-23T11:32:05.175Z,19.00
2019-03-23T11:34:43.126Z,19.10
2019-03-23T11:37:21.076Z,19.10
2019-03-23T11:39:59.073Z,19.10
2019-03-23T11:42:37.333Z,19.10
2019-03-23T11:45:15.261Z,19.10
2019-03-23T11:47:53.043Z,19.10
2019-03-23T11:50:30.996Z,19.20
2019-03-23T11:53:08.712Z,19.30
2019-03-23T11:55:46.660Z,19.40
2019-03-23T11:58:24.554Z,19.50
2019-03-23T12:01:02.481Z,19.50
2019-03-23T12:03:40.307Z,19.60
2019-03-23T12:06:18.429Z,19.70
2019-03-23T12:08:56.106Z,19.80
2019-03-23T12:11:34.037Z,19.80
2019-03-23T12:14:11.785Z,19.70
2019-03-23T12:16:49.731Z,19.60
2019-03-23T12:19:27.594Z,19.70
2019-03-23T12:22:06.613Z,19.80
2019-03-23T12:24:44.520Z,19.90
2019-03-23T12:27:24.683Z,20.00
2019-03-23T12:30:07.004Z,20.00
2019-03-23T12:32:41.429Z,20.00
2019-03-23T12:35:19.276Z,20.10
2019-03-23T12:37:57.212Z,20.10
2019-03-23T12:40:36.487Z,20.30
2019-03-23T12:43:14.625Z,20.40
2019-03-23T12:45:52.525Z,20.40
2019-03-23T12:48:30.349Z,20.40
2019-03-23T12:51:08.282Z,20.50
2019-03-23T12:53:46.161Z,20.30
2019-03-23T12:56:24.104Z,20.10
2019-03-23T12:59:01.994Z,20.00
2019-03-23T13:01:39.854Z,20.00
2019-03-23T13:04:17.719Z,20.00
2019-03-23T13:06:55.516Z,20.10
2019-03-23T13:09:33.347Z,20.20
2019-03-23T13:12:11.257Z,20.30
2019-03-23T13:14:49.085Z,20.30
2019-03-23T13:17:26.884Z,20.40
2019-03-23T13:20:05.440Z,20.50
2019-03-23T13:22:43.374Z,20.50
2019-03-23T13:25:20.985Z,20.60
2019-03-23T13:27:58.843Z,20.60
2019-03-23T13:30:36.705Z,20.60
2019-03-23T13:33:14.487Z,20.70
2019-03-23T13:35:52.398Z,20.60
2019-03-23T13:38:30.360Z,20.60
2019-03-23T13:41:08.300Z,20.50
2019-03-23T13:43:46.378Z,20.50
2019-03-23T13:46:24.155Z,20.50
2019-03-23T13:49:02.019Z,20.50
2019-03-23T13:51:39.781Z,20.60
2019-03-23T13:54:17.710Z,20.80
2019-03-23T13:56:55.531Z,20.80
2019-03-23T13:59:33.482Z,20.90
2019-03-23T14:02:11.379Z,20.90
2019-03-23T14:04:50.292Z,21.00
2019-03-23T14:07:28.263Z,21.10
2019-03-23T14:10:06.242Z,21.10
2019-03-23T14:12:44.150Z,21.20
2019-03-23T14:15:22.072Z,21.10
2019-03-23T14:17:59.963Z,21.10
2019-03-23T14:20:38.816Z,21.20
2019-03-23T14:23:16.688Z,21.10
2019-03-23T14:25:54.683Z,21.10
2019-03-23T14:28:32.585Z,21.10
2019-03-23T14:31:10.571Z,21.10
2019-03-23T14:33:48.739Z,21.10
2019-03-23T14:36:27.929Z,21.10
2019-03-23T14:39:07.625Z,21.10
2019-03-23T14:41:46.353Z,21.10
2019-03-23T14:44:24.191Z,21.10
2019-03-23T14:47:03.088Z,21.00
2019-03-23T14:49:40.921Z,21.00
2019-03-23T14:52:18.837Z,21.00
2019-03-23T14:54:56.708Z,21.10
2019-03-23T14:57:34.590Z,21.00
2019-03-23T15:00:12.882Z,21.00
2019-03-23T15:02:50.833Z,21.00
2019-03-23T15:05:28.796Z,21.00
2019-03-23T15:08:10.039Z,21.00
2019-03-23T15:10:53.208Z,21.00
2019-03-23T15:13:31.153Z,20.90
2019-03-23T15:16:09.136Z,21.00
2019-03-23T15:18:47.049Z,20.90
2019-03-23T15:21:24.957Z,20.80
2019-03-23T15:24:02.844Z,20.80
2019-03-23T15:26:40.731Z,20.80
2019-03-23T15:29:18.610Z,20.80
2019-03-23T15:31:56.488Z,20.70
2019-03-23T15:34:34.175Z,20.70
2019-03-23T15:39:53.672Z,20.70
2019-03-23T15:42:31.636Z,20.60
2019-03-23T15:45:09.964Z,20.60
2019-03-23T15:47:48.055Z,20.50
2019-03-23T15:50:26.032Z,20.50
2019-03-23T15:53:04.102Z,20.40
2019-03-23T15:55:41.997Z,20.40
2019-03-23T15:58:19.785Z,20.30
2019-03-23T16:00:57.950Z,20.20
2019-03-23T16:03:35.829Z,20.00
2019-03-23T16:06:13.629Z,20.00
2019-03-23T16:08:51.169Z,19.90
2019-03-23T16:11:29.048Z,19.80
2019-03-23T16:14:06.950Z,19.70
2019-03-23T16:16:44.909Z,19.60
2019-03-23T16:19:22.767Z,19.60
2019-03-23T16:22:00.664Z,19.50
2019-03-23T16:24:38.602Z,19.40
2019-03-23T16:27:16.484Z,19.30
2019-03-23T16:29:54.405Z,19.20
2019-03-23T16:32:32.157Z,19.20
2019-03-23T16:35:10.092Z,19.10
2019-03-23T16:37:48.176Z,18.90
2019-03-23T16:40:26.520Z,18.80
2019-03-23T16:43:06.267Z,18.70
2019-03-23T16:45:46.459Z,18.60
2019-03-23T16:48:24.432Z,18.50
2019-03-23T16:51:09.851Z,18.40
2019-03-23T16:53:47.706Z,18.20
2019-03-23T16:56:25.686Z,18.10
2019-03-23T16:59:03.543Z,18.00
2019-03-23T17:01:41.464Z,17.80
2019-03-23T17:04:19.769Z,17.70
2019-03-23T17:06:57.698Z,17.60
2019-03-23T17:09:35.488Z,17.40
2019-03-23T17:12:13.416Z,17.30
2019-03-23T17:14:51.231Z,17.20
2019-03-23T17:17:29.165Z,17.10
2019-03-23T17:20:06.960Z,17.00
2019-03-23T17:22:44.845Z,16.90
2019-03-23T17:25:22.765Z,16.80
2019-03-23T17:28:00.758Z,16.70
2019-03-23T17:30:38.762Z,16.60
2019-03-23T17:33:17.142Z,16.50
2019-03-23T17:35:58.663Z,16.50
2019-03-23T17:38:36.550Z,16.40
2019-03-23T17:41:14.519Z,16.30
2019-03-23T17:43:52.462Z,16.20
2019-03-23T17:46:30.364Z,16.10
2019-03-23T17:49:08.329Z,16.00
2019-03-23T17:51:46.244Z,16.00
2019-03-23T17:54:24.169Z,15.90
2019-03-23T17:57:02.093Z,15.80
2019-03-23T17:59:39.997Z,15.70
2019-03-23T18:02:17.318Z,15.70
2019-03-23T18:04:55.261Z,15.60
2019-03-23T18:07:33.129Z,15.60
2019-03-23T18:10:11.135Z,15.50
2019-03-23T18:12:48.493Z,15.50
2019-03-23T18:15:28.730Z,15.50
2019-03-23T18:18:06.598Z,15.40
2019-03-23T18:20:43.967Z,15.20
2019-03-23T18:23:21.403Z,15.10
2019-03-23T18:25:58.754Z,15.00
2019-03-23T18:28:36.925Z,14.90
2019-03-23T18:31:14.293Z,14.70
2019-03-23T18:33:51.611Z,14.60
2019-03-23T18:36:29.129Z,14.50
2019-03-23T18:39:06.428Z,14.40
2019-03-23T18:41:43.717Z,14.30
2019-03-23T18:44:21.063Z,14.20
2019-03-23T18:46:58.478Z,14.10
2019-03-23T18:49:35.690Z,14.10
2019-03-23T18:52:13.038Z,14.10
2019-03-23T18:54:50.442Z,14.10
2019-03-23T18:57:29.453Z,14.00
2019-03-23T19:00:07.555Z,14.00
2019-03-23T19:02:44.940Z,14.00
2019-03-23T19:05:23.881Z,14.00
2019-03-23T19:08:01.217Z,14.00
2019-03-23T19:10:38.539Z,14.00
2019-03-23T19:13:15.763Z,13.90
2019-03-23T19:15:53.063Z,13.90
2019-03-23T19:18:30.397Z,13.90
2019-03-23T19:21:10.340Z,13.90
2019-03-23T19:23:47.671Z,13.90
2019-03-23T19:26:25.009Z,13.80
2019-03-23T19:29:02.368Z,13.80
2019-03-23T19:31:39.649Z,13.80
2019-03-23T19:34:16.999Z,13.90
2019-03-23T19:36:54.219Z,14.00
2019-03-23T19:39:31.800Z,14.20
2019-03-23T19:42:16.133Z,14.40
2019-03-23T19:44:53.485Z,14.50
2019-03-23T19:47:30.848Z,14.40
2019-03-23T19:50:09.741Z,14.30
2019-03-23T19:52:50.818Z,14.10
2019-03-23T19:55:28.119Z,14.00
2019-03-23T19:58:05.465Z,13.80
2019-03-23T20:00:43.909Z,13.60
2019-03-23T20:03:21.163Z,13.50
2019-03-23T20:05:58.659Z,13.40
2019-03-23T20:08:36.226Z,13.30
2019-03-23T20:11:13.637Z,13.10
2019-03-23T20:13:58.488Z,13.00
2019-03-23T20:16:30.042Z,12.90
2019-03-23T20:19:07.418Z,12.80
2019-03-23T20:21:44.998Z,12.70
2019-03-23T20:24:22.564Z,12.50
2019-03-23T20:27:00.029Z,12.40
2019-03-23T20:29:37.354Z,12.20
2019-03-23T20:32:14.641Z,12.10
2019-03-23T20:34:52.009Z,12.00
2019-03-23T20:37:29.323Z,11.80
2019-03-23T20:40:07.170Z,11.70
2019-03-23T20:42:44.537Z,11.60
2019-03-23T20:45:27.093Z,11.50
2019-03-23T20:48:04.442Z,11.40
2019-03-23T20:50:41.871Z,11.30
2019-03-23T20:53:19.243Z,11.20
2019-03-23T20:55:56.472Z,11.10
2019-03-23T20:58:33.724Z,11.00
2019-03-23T21:01:11.065Z,10.80
2019-03-23T21:03:52.185Z,10.70
2019-03-23T21:06:29.497Z,10.60
2019-03-23T21:09:07.628Z,10.50
2019-03-23T21:11:44.960Z,10.40
2019-03-23T21:14:22.373Z,10.30
2019-03-23T21:16:59.793Z,10.20
2019-03-23T21:19:38.171Z,10.20
2019-03-23T21:22:15.546Z,10.10
2019-03-23T21:24:52.896Z,10.00
2019-03-23T21:27:30.084Z,9.90
2019-03-23T21:30:13.283Z,9.90
2019-03-23T21:32:50.574Z,9.80
2019-03-23T21:35:28.008Z,9.80
2019-03-23T21:38:05.300Z,9.70
2019-03-23T21:40:42.663Z,9.60
2019-03-23T21:43:19.993Z,9.60
2019-03-23T21:45:57.278Z,9.60
2019-03-23T21:48:35.938Z,9.50
2019-03-23T21:51:13.157Z,9.50
2019-03-23T21:53:50.473Z,9.40
2019-03-23T21:56:27.819Z,9.40
2019-03-23T21:59:05.094Z,9.30
2019-03-23T22:01:42.383Z,9.30
2019-03-23T22:04:19.707Z,9.30
2019-03-23T22:06:57.359Z,9.20
2019-03-23T22:09:34.956Z,9.20
2019-03-23T22:12:12.809Z,9.10
2019-03-23T22:14:50.198Z,9.10
2019-03-23T22:17:27.612Z,9.00
2019-03-23T22:20:08.261Z,9.00
2019-03-23T22:22:45.548Z,8.90
2019-03-23T22:25:22.805Z,8.90
2019-03-23T22:28:00.165Z,8.90
2019-03-23T22:30:37.508Z,8.90
2019-03-23T22:33:14.950Z,8.80
2019-03-23T22:35:52.276Z,8.80
2019-03-23T22:38:29.763Z,8.80
2019-03-23T22:41:07.082Z,8.80
2019-03-23T22:43:44.461Z,8.80
2019-03-23T22:46:21.796Z,8.80
2019-03-23T22:48:58.980Z,8.80
2019-03-23T22:51:36.248Z,8.70
2019-03-23T22:54:13.619Z,8.70
2019-03-23T22:56:50.812Z,8.60
2019-03-23T22:59:28.077Z,8.50
2019-03-23T23:02:05.491Z,8.40
2019-03-23T23:04:42.875Z,8.30
2019-03-23T23:07:21.112Z,8.30
2019-03-23T23:09:58.284Z,8.20
2019-03-23T23:12:35.644Z,8.20
2019-03-23T23:15:12.937Z,8.20
2019-03-23T23:17:50.293Z,8.20
2019-03-23T23:20:27.603Z,8.10
2019-03-23T23:23:05.234Z,8.10
2019-03-23T23:25:43.136Z,8.10
2019-03-23T23:28:20.500Z,8.10
2019-03-23T23:30:57.713Z,8.10
2019-03-23T23:33:35.039Z,8.10
2019-03-23T23:36:12.338Z,8.10
2019-03-23T23:38:49.770Z,8.20
2019-03-23T23:41:26.969Z,8.20
2019-03-23T23:44:04.567Z,8.20
2019-03-23T23:46:41.841Z,8.20
2019-03-23T23:49:19.171Z,8.20
2019-03-23T23:51:56.416Z,8.20
2019-03-23T23:54:33.777Z,8.20
2019-03-23T23:57:11.057Z,8.20
2019-03-23T23:59:48.307Z,8.20
